createdAt,value
2023-02-11T00:01:07.185Z,99006.97
2023-02-11T00:03:33.631Z,99006.97
2023-02-11T00:06:02.483Z,99008.53
2023-02-11T00:08:28.859Z,99018.00
2023-02-11T00:10:57.407Z,99006.97
2023-02-11T00:13:25.106Z,99016.22
2023-02-11T00:15:51.781Z,99001.28
2023-02-11T00:18:18.423Z,99009.94
2023-02-11T00:20:44.815Z,98993.00
2023-02-11T00:23:11.201Z,99006.00
2023-02-11T00:25:45.131Z,99002.63
2023-02-11T00:28:11.966Z,99008.75
2023-02-11T00:30:38.560Z,98985.50
2023-02-11T00:33:05.024Z,98981.16
2023-02-11T00:35:31.382Z,98990.03
2023-02-11T00:37:57.942Z,98981.50
2023-02-11T00:40:24.504Z,98995.72
2023-02-11T00:42:50.928Z,98995.53
2023-02-11T00:45:17.438Z,98979.16
2023-02-11T00:47:43.821Z,98969.28
2023-02-11T00:50:10.238Z,98986.38
2023-02-11T00:52:36.629Z,98980.25
2023-02-11T00:55:03.065Z,98993.59
2023-02-11T00:57:29.500Z,98991.03
2023-02-11T00:59:55.855Z,98975.00
2023-02-11T01:02:22.224Z,98975.00
2023-02-11T01:04:48.697Z,98968.72
2023-02-11T01:07:15.126Z,98984.78
2023-02-11T01:09:41.469Z,98984.38
2023-02-11T01:12:07.864Z,98984.97
2023-02-11T01:14:34.242Z,98970.03
2023-02-11T01:17:00.620Z,98970.75
2023-02-11T01:19:27.025Z,98972.69
2023-02-11T01:21:53.388Z,98962.44
2023-02-11T01:24:19.766Z,98958.34
2023-02-11T01:26:46.156Z,98969.34
2023-02-11T01:29:12.557Z,98973.25
2023-02-11T01:31:39.129Z,98954.25
2023-02-11T01:34:06.693Z,98966.84
2023-02-11T01:36:33.125Z,98963.31
2023-02-11T01:39:00.062Z,98957.84
2023-02-11T01:41:26.455Z,98954.31
2023-02-11T01:43:52.829Z,98953.50
2023-02-11T01:46:36.622Z,98954.53
2023-02-11T01:49:15.027Z,98947.00
2023-02-11T01:51:46.831Z,98941.66
2023-02-11T01:54:37.135Z,98932.59
2023-02-11T01:57:24.677Z,98940.22
2023-02-11T02:00:09.766Z,98928.66
2023-02-11T02:02:43.788Z,98921.16
2023-02-11T02:05:35.617Z,98943.91
2023-02-11T02:08:27.634Z,98934.50
2023-02-11T02:10:56.461Z,98931.34
2023-02-11T02:13:24.794Z,98932.91
2023-02-11T02:15:55.675Z,98928.94
2023-02-11T02:18:42.399Z,98923.38
2023-02-11T02:21:46.429Z,98933.25
2023-02-11T02:24:39.704Z,98927.63
2023-02-11T02:27:26.271Z,98934.69
2023-02-11T02:30:17.409Z,98913.25
2023-02-11T02:32:53.771Z,98923.63
2023-02-11T02:35:51.889Z,98925.44
2023-02-11T02:38:27.624Z,98927.44
2023-02-11T02:40:59.264Z,98917.25
2023-02-11T02:43:27.491Z,98930.81
2023-02-11T02:45:54.171Z,98931.78
2023-02-11T02:48:29.988Z,98933.88
2023-02-11T02:51:16.826Z,98930.09
2023-02-11T02:53:49.036Z,98931.72
2023-02-11T02:56:23.489Z,98914.41
2023-02-11T02:59:10.175Z,98919.13
2023-02-11T03:01:58.506Z,98917.03
2023-02-11T03:04:41.782Z,98917.59
2023-02-11T03:07:27.366Z,98915.06
2023-02-11T03:10:17.622Z,98909.75
2023-02-11T03:12:47.073Z,98915.69
2023-02-11T03:15:14.929Z,98924.00
2023-02-11T03:17:47.574Z,98911.41
2023-02-11T03:20:17.484Z,98913.56
2023-02-11T03:22:52.820Z,98922.06
2023-02-11T03:25:20.607Z,98909.09
2023-02-11T03:27:53.863Z,98901.38
2023-02-11T03:30:35.182Z,98886.63
2023-02-11T03:33:10.564Z,98890.72
2023-02-11T03:35:47.308Z,98884.84
2023-02-11T03:38:34.830Z,98895.09
2023-02-11T03:41:03.336Z,98891.69
2023-02-11T03:43:42.736Z,98874.53
2023-02-11T03:46:11.921Z,98863.31
2023-02-11T03:48:43.734Z,98863.72
2023-02-11T03:51:12.405Z,98853.63
2023-02-11T03:53:42.832Z,98845.16
2023-02-11T03:56:13.019Z,98847.94
2023-02-11T03:58:39.430Z,98853.63
2023-02-11T04:01:09.711Z,98855.16
2023-02-11T04:03:36.306Z,98830.78
2023-02-11T04:06:02.755Z,98824.03
2023-02-11T04:08:29.155Z,98824.31
2023-02-11T04:10:55.557Z,98823.56
2023-02-11T04:13:22.432Z,98836.06
2023-02-11T04:15:49.210Z,98832.81
2023-02-11T04:18:15.665Z,98832.22
2023-02-11T04:20:42.277Z,98842.47
2023-02-11T04:23:10.110Z,98859.38
2023-02-11T04:25:36.597Z,98860.59
2023-02-11T04:28:03.081Z,98853.88
2023-02-11T04:30:29.547Z,98847.38
2023-02-11T04:32:55.925Z,98847.94
2023-02-11T04:35:22.311Z,98832.38
2023-02-11T04:37:48.706Z,98835.03
2023-02-11T04:40:15.086Z,98847.53
2023-02-11T04:42:41.448Z,98857.63
2023-02-11T04:45:08.276Z,98854.09
2023-02-11T04:47:34.858Z,98853.91
2023-02-11T04:50:01.256Z,98864.75
2023-02-11T04:52:27.612Z,98864.41
2023-02-11T04:54:53.984Z,98853.81
2023-02-11T04:57:20.322Z,98850.09
2023-02-11T04:59:46.723Z,98858.75
2023-02-11T05:02:13.082Z,98859.19
2023-02-11T05:04:39.493Z,98862.75
2023-02-11T05:07:05.848Z,98850.56
2023-02-11T05:09:32.428Z,98850.75
2023-02-11T05:11:58.800Z,98842.31
2023-02-11T05:14:25.181Z,98839.56
2023-02-11T05:16:51.686Z,98817.31
2023-02-11T05:19:18.079Z,98814.16
2023-02-11T05:22:00.210Z,98813.19
2023-02-11T05:24:28.302Z,98813.00
2023-02-11T05:26:54.674Z,98816.56
2023-02-11T05:29:21.086Z,98811.22
2023-02-11T05:31:47.454Z,98810.84
2023-02-11T05:34:13.817Z,98814.78
2023-02-11T05:36:40.254Z,98825.03
2023-02-11T05:39:06.755Z,98812.03
2023-02-11T05:41:33.142Z,98828.38
2023-02-11T05:43:59.516Z,98855.72
2023-02-11T05:46:26.000Z,98845.28
2023-02-11T05:48:52.405Z,98848.25
2023-02-11T05:51:18.830Z,98846.28
2023-02-11T05:53:45.214Z,98844.31
2023-02-11T05:56:12.458Z,98835.25
2023-02-11T05:58:39.084Z,98846.50
2023-02-11T06:01:05.491Z,98841.78
2023-02-11T06:03:32.035Z,98847.47
2023-02-11T06:05:58.509Z,98847.66
2023-02-11T06:08:25.054Z,98863.03
2023-02-11T06:10:51.446Z,98867.16
2023-02-11T06:13:19.460Z,98877.38
2023-02-11T06:15:55.027Z,98856.72
2023-02-11T06:18:21.394Z,98851.78
2023-02-11T06:20:47.750Z,98862.25
2023-02-11T06:23:14.102Z,98865.97
2023-02-11T06:25:40.530Z,98872.09
2023-02-11T06:28:06.923Z,98879.34
2023-02-11T06:30:33.334Z,98874.03
2023-02-11T06:32:59.695Z,98878.19
2023-02-11T06:35:26.082Z,98880.13
2023-02-11T06:37:53.884Z,98877.41
2023-02-11T06:40:20.620Z,98878.94
2023-02-11T06:42:47.066Z,98873.81
2023-02-11T06:45:13.495Z,98853.28
2023-02-11T06:47:40.718Z,98862.72
2023-02-11T06:50:08.966Z,98860.22
2023-02-11T06:52:35.350Z,98861.78
2023-02-11T06:55:02.501Z,98872.25
2023-02-11T06:57:30.750Z,98866.72
2023-02-11T06:59:57.257Z,98853.75
2023-02-11T07:02:23.688Z,98856.50
2023-02-11T07:04:50.189Z,98846.66
2023-02-11T07:07:16.568Z,98831.47
2023-02-11T07:09:43.059Z,98835.03
2023-02-11T07:12:11.349Z,98828.56
2023-02-11T07:14:37.940Z,98821.28
2023-02-11T07:17:04.804Z,98827.38
2023-02-11T07:19:31.223Z,98825.81
2023-02-11T07:21:57.608Z,98833.69
2023-02-11T07:24:24.878Z,98850.03
2023-02-11T07:26:51.241Z,98857.06
2023-02-11T07:29:17.608Z,98861.22
2023-02-11T07:31:44.152Z,98869.47
2023-02-11T07:34:10.756Z,98878.94
2023-02-11T07:36:37.581Z,98874.00
2023-02-11T07:39:04.006Z,98868.06
2023-02-11T07:41:30.449Z,98872.75
2023-02-11T07:43:56.927Z,98865.06
2023-02-11T07:46:27.260Z,98863.44
2023-02-11T07:48:54.914Z,98869.66
2023-02-11T07:51:24.354Z,98858.44
2023-02-11T07:53:52.008Z,98856.66
2023-02-11T07:56:20.207Z,98849.84
2023-02-11T07:58:46.618Z,98857.84
2023-02-11T08:01:17.580Z,98841.91
2023-02-11T08:03:44.312Z,98856.50
2023-02-11T08:06:13.228Z,98861.97
2023-02-11T08:08:40.091Z,98862.13
2023-02-11T08:11:13.978Z,98864.09
2023-02-11T08:13:40.712Z,98861.16
2023-02-11T08:16:08.270Z,98859.16
2023-02-11T08:18:35.672Z,98890.81
2023-02-11T08:21:09.525Z,98887.44
2023-02-11T08:23:38.025Z,98893.88
2023-02-11T08:26:10.149Z,98888.72
2023-02-11T08:28:38.320Z,98902.91
2023-02-11T08:31:16.801Z,98890.69
2023-02-11T08:33:44.106Z,98900.72
2023-02-11T08:36:19.063Z,98885.31
2023-02-11T08:38:45.757Z,98894.28
2023-02-11T08:41:14.837Z,98873.50
2023-02-11T08:43:42.343Z,98895.09
2023-02-11T08:46:10.108Z,98875.91
2023-02-11T08:48:36.543Z,98896.72
2023-02-11T08:51:10.360Z,98896.88
2023-02-11T08:53:37.294Z,98893.66
2023-02-11T08:56:03.813Z,98896.47
2023-02-11T08:58:30.428Z,98886.25
2023-02-11T09:00:56.873Z,98899.13
2023-02-11T09:03:23.498Z,98891.91
2023-02-11T09:05:52.932Z,98894.03
2023-02-11T09:08:20.502Z,98890.34
2023-02-11T09:10:47.298Z,98897.13
2023-02-11T09:13:14.080Z,98898.84
2023-02-11T09:15:40.543Z,98918.41
2023-02-11T09:18:07.457Z,98908.53
2023-02-11T09:20:34.168Z,98915.81
2023-02-11T09:23:00.642Z,98927.84
2023-02-11T09:25:27.299Z,98920.97
2023-02-11T09:27:54.013Z,98931.34
2023-02-11T09:30:21.127Z,98928.13
2023-02-11T09:32:47.571Z,98940.41
2023-02-11T09:35:14.023Z,98947.56
2023-02-11T09:37:40.431Z,98958.78
2023-02-11T09:40:07.358Z,98953.69
2023-02-11T09:42:38.948Z,98960.28
2023-02-11T09:45:17.411Z,98958.41
2023-02-11T09:47:50.867Z,98960.94
2023-02-11T09:50:38.889Z,98945.97
2023-02-11T09:53:11.026Z,98965.69
2023-02-11T09:55:44.866Z,98959.75
2023-02-11T09:58:17.654Z,98963.03
2023-02-11T10:00:48.998Z,98961.41
2023-02-11T10:03:27.919Z,98966.97
2023-02-11T10:06:28.974Z,98963.28
2023-02-11T10:09:26.405Z,98975.19
2023-02-11T10:12:02.805Z,98985.44
2023-02-11T10:14:48.932Z,98998.22
2023-02-11T10:17:50.803Z,98997.22
2023-02-11T10:20:52.656Z,99005.13
2023-02-11T10:23:22.488Z,98994.69
2023-02-11T10:25:52.856Z,98989.63
2023-02-11T10:28:22.006Z,99002.22
2023-02-11T10:30:54.706Z,98997.53
2023-02-11T10:33:33.067Z,99001.47
2023-02-11T10:35:59.962Z,98998.28
2023-02-11T10:38:27.740Z,98996.84
2023-02-11T10:40:54.214Z,98986.84
2023-02-11T10:43:24.363Z,98989.94
2023-02-11T10:45:53.024Z,99002.94
2023-02-11T10:48:38.630Z,99004.22
2023-02-11T10:51:13.411Z,98993.56
2023-02-11T10:53:40.781Z,98986.66
2023-02-11T10:56:10.568Z,98983.06
2023-02-11T10:59:01.129Z,98975.75
2023-02-11T11:01:44.083Z,98962.13
2023-02-11T11:04:45.216Z,98974.06
2023-02-11T11:07:14.593Z,98964.63
2023-02-11T11:09:48.593Z,98960.19
2023-02-11T11:12:31.501Z,98958.63
2023-02-11T11:15:14.270Z,98946.41
2023-02-11T11:17:40.642Z,98950.22
2023-02-11T11:20:20.541Z,98958.41
2023-02-11T11:22:49.540Z,98952.41
2023-02-11T11:25:24.040Z,98954.31
2023-02-11T11:27:52.814Z,98958.91
2023-02-11T11:30:20.163Z,98966.25
2023-02-11T11:32:46.942Z,98957.69
2023-02-11T11:35:28.367Z,98971.19
2023-02-11T11:38:03.847Z,98953.91
2023-02-11T11:40:32.846Z,98965.69
2023-02-11T11:43:22.636Z,98971.75
2023-02-11T11:45:56.754Z,98972.78
2023-02-11T11:48:31.271Z,98967.03
2023-02-11T11:51:01.276Z,98957.97
2023-02-11T11:53:51.075Z,98975.69
2023-02-11T11:56:22.315Z,98957.84
2023-02-11T11:58:50.238Z,98955.34
2023-02-11T12:01:28.564Z,98969.88
2023-02-11T12:04:20.759Z,98959.66
2023-02-11T12:07:02.413Z,98961.50
2023-02-11T12:09:40.045Z,98957.47
2023-02-11T12:12:22.165Z,98935.41
2023-02-11T12:15:11.292Z,98952.91
2023-02-11T12:18:02.172Z,98958.13
2023-02-11T12:20:36.596Z,98947.28
2023-02-11T12:23:37.868Z,98951.88
2023-02-11T12:26:22.336Z,98939.16
2023-02-11T12:29:42.823Z,98947.34
2023-02-11T12:32:33.378Z,98938.50
2023-02-11T12:35:12.936Z,98938.75
2023-02-11T12:38:02.323Z,98950.16
2023-02-11T12:40:42.659Z,98928.09
2023-02-11T12:43:34.905Z,98944.25
2023-02-11T12:46:32.238Z,98944.25
2023-02-11T12:49:17.548Z,98943.13
2023-02-11T12:52:04.940Z,98945.03
2023-02-11T12:54:45.387Z,98944.38
2023-02-11T12:57:28.209Z,98937.97
2023-02-11T13:00:05.044Z,98927.78
2023-02-11T13:02:54.534Z,98930.34
2023-02-11T13:05:29.408Z,98930.59
2023-02-11T13:08:04.451Z,98934.59
2023-02-11T13:10:37.295Z,98932.03
2023-02-11T13:13:17.091Z,98926.19
2023-02-11T13:15:51.644Z,98919.16
2023-02-11T13:18:44.814Z,98931.59
2023-02-11T13:21:48.317Z,98935.50
2023-02-11T13:24:17.723Z,98922.88
2023-02-11T13:27:06.975Z,98912.88
2023-02-11T13:29:42.941Z,98902.72
2023-02-11T13:32:12.045Z,98918.63
2023-02-11T13:34:41.483Z,98916.16
2023-02-11T13:37:36.101Z,98918.09
2023-02-11T13:40:06.982Z,98900.50
2023-02-11T13:42:34.775Z,98914.97
2023-02-11T13:45:01.482Z,98902.94
2023-02-11T13:47:32.487Z,98886.81
2023-02-11T13:50:01.578Z,98902.06
2023-02-11T13:52:37.216Z,98910.47
2023-02-11T13:55:24.837Z,98917.75
2023-02-11T13:58:06.165Z,98910.81
2023-02-11T14:00:35.663Z,98915.50
2023-02-11T14:03:29.725Z,98914.75
2023-02-11T14:06:26.853Z,98917.06
2023-02-11T14:09:14.145Z,98919.75
2023-02-11T14:11:43.487Z,98923.59
2023-02-11T14:14:13.193Z,98926.94
2023-02-11T14:17:01.763Z,98929.84
2023-02-11T14:19:40.005Z,98922.91
2023-02-11T14:22:47.513Z,98924.59
2023-02-11T14:25:25.181Z,98924.03
2023-02-11T14:28:06.641Z,98913.94
2023-02-11T14:30:43.598Z,98918.66
2023-02-11T14:33:25.072Z,98907.78
2023-02-11T14:36:26.800Z,98918.31
2023-02-11T14:39:08.768Z,98916.19
2023-02-11T14:41:43.846Z,98909.59
2023-02-11T14:44:17.750Z,98914.50
2023-02-11T14:46:47.413Z,98908.25
2023-02-11T14:49:27.089Z,98911.16
2023-02-11T14:51:59.083Z,98921.88
2023-02-11T14:54:28.620Z,98912.25
2023-02-11T14:57:19.210Z,98927.63
2023-02-11T14:59:59.294Z,98931.75
2023-02-11T15:02:32.224Z,98934.47
2023-02-11T15:05:21.002Z,98931.53
2023-02-11T15:07:50.087Z,98940.38
2023-02-11T15:10:26.563Z,98938.69
2023-02-11T15:12:53.516Z,98936.34
2023-02-11T15:15:20.000Z,98929.31
2023-02-11T15:17:46.798Z,98926.94
2023-02-11T15:20:21.966Z,98916.84
2023-02-11T15:22:54.050Z,98936.22
2023-02-11T15:25:21.293Z,98934.19
2023-02-11T15:27:53.884Z,98943.41
2023-02-11T15:30:23.225Z,98946.19
2023-02-11T15:32:50.738Z,98944.72
2023-02-11T15:35:18.128Z,98940.81
2023-02-11T15:37:45.452Z,98945.63
2023-02-11T15:40:18.801Z,98944.25
2023-02-11T15:42:56.788Z,98957.72
2023-02-11T15:45:34.792Z,98963.66
2023-02-11T15:48:14.605Z,98968.25
2023-02-11T15:50:43.384Z,98963.09
2023-02-11T15:53:21.883Z,98962.19
2023-02-11T15:55:51.548Z,98963.19
2023-02-11T15:58:18.209Z,98970.34
2023-02-11T16:00:54.611Z,98972.91
2023-02-11T16:03:28.648Z,98972.78
2023-02-11T16:05:59.818Z,98971.66
2023-02-11T16:08:32.744Z,98974.22
2023-02-11T16:11:03.157Z,98988.91
2023-02-11T16:13:33.586Z,98969.50
2023-02-11T16:16:05.522Z,98979.38
2023-02-11T16:18:39.107Z,98982.38
2023-02-11T16:21:17.827Z,98979.91
2023-02-11T16:23:52.536Z,98975.75
2023-02-11T16:26:24.855Z,98973.84
2023-02-11T16:28:52.062Z,98987.63
2023-02-11T16:31:19.378Z,98982.78
2023-02-11T16:33:45.939Z,98993.97
2023-02-11T16:36:14.546Z,99001.47
2023-02-11T16:38:40.943Z,99009.22
2023-02-11T16:41:07.359Z,98995.06
2023-02-11T16:43:33.750Z,98986.53
2023-02-11T16:46:00.163Z,98998.78
2023-02-11T16:48:26.626Z,98984.28
2023-02-11T16:50:53.750Z,99005.91
2023-02-11T16:53:23.497Z,99010.31
2023-02-11T16:55:51.436Z,99008.38
2023-02-11T16:58:18.237Z,99000.75
2023-02-11T17:00:46.943Z,98997.00
2023-02-11T17:03:25.537Z,98987.75
2023-02-11T17:05:55.603Z,99004.56
2023-02-11T17:08:22.322Z,99012.75
2023-02-11T17:10:48.894Z,99000.19
2023-02-11T17:13:15.407Z,99014.41
2023-02-11T17:15:41.795Z,99003.38
2023-02-11T17:18:12.162Z,99018.78
2023-02-11T17:20:38.536Z,99018.97
2023-02-11T17:23:04.920Z,99027.91
2023-02-11T17:25:31.515Z,99018.50
2023-02-11T17:27:58.006Z,99033.72
2023-02-11T17:30:25.027Z,99035.06
2023-02-11T17:32:51.413Z,99043.81
2023-02-11T17:35:17.808Z,99044.25
2023-02-11T17:37:44.195Z,99050.16
2023-02-11T17:40:11.422Z,99047.59
2023-02-11T17:42:37.787Z,99036.72
2023-02-11T17:45:04.576Z,99039.09
2023-02-11T17:47:31.025Z,99048.81
2023-02-11T17:49:57.581Z,99042.38
2023-02-11T17:52:24.372Z,99042.72
2023-02-11T17:54:51.345Z,99042.16
2023-02-11T17:57:17.834Z,99039.09
2023-02-11T17:59:44.354Z,99049.97
2023-02-11T18:02:12.557Z,99050.38
2023-02-11T18:04:39.887Z,99046.31
2023-02-11T18:07:07.008Z,99043.38
2023-02-11T18:09:38.890Z,99054.66
2023-02-11T18:12:06.426Z,99055.66
2023-02-11T18:14:33.921Z,99046.31
2023-02-11T18:17:00.582Z,99068.81
2023-02-11T18:19:30.411Z,99057.81
2023-02-11T18:21:59.747Z,99055.47
2023-02-11T18:24:27.322Z,99047.81
2023-02-11T18:26:53.765Z,99057.81
2023-02-11T18:29:20.154Z,99054.53
2023-02-11T18:31:46.556Z,99055.66
2023-02-11T18:34:12.974Z,99038.75
2023-02-11T18:36:39.420Z,99058.75
2023-02-11T18:39:06.221Z,99048.88
2023-02-11T18:41:32.634Z,99058.53
2023-02-11T18:44:02.584Z,99038.81
2023-02-11T18:46:29.708Z,99031.78
2023-02-11T18:48:56.443Z,99048.34
2023-02-11T18:51:23.162Z,99050.78
2023-02-11T18:53:49.567Z,99057.44
2023-02-11T18:56:19.257Z,99046.25
2023-02-11T18:58:45.751Z,99046.50
2023-02-11T19:01:16.629Z,99063.72
2023-02-11T19:03:44.192Z,99057.88
2023-02-11T19:06:16.127Z,99060.78
2023-02-11T19:08:42.864Z,99052.16
2023-02-11T19:11:09.902Z,99065.53
2023-02-11T19:13:36.486Z,99051.28
2023-02-11T19:16:11.039Z,99068.66
2023-02-11T19:18:38.671Z,99079.19
2023-02-11T19:21:12.221Z,99072.69
2023-02-11T19:23:38.733Z,99069.31
2023-02-11T19:26:06.299Z,99064.03
2023-02-11T19:28:35.202Z,99071.38
2023-02-11T19:31:06.864Z,99054.66
2023-02-11T19:33:33.379Z,99078.31
2023-02-11T19:36:07.626Z,99086.50
2023-02-11T19:38:34.569Z,99082.69
2023-02-11T19:41:00.974Z,99070.47
2023-02-11T19:43:27.867Z,99076.75
2023-02-11T19:45:56.264Z,99085.53
2023-02-11T19:48:24.174Z,99083.63
2023-02-11T19:50:50.667Z,99095.28
2023-02-11T19:53:17.122Z,99080.31
2023-02-11T19:55:43.512Z,99099.28
2023-02-11T19:58:09.920Z,99102.78
2023-02-11T20:00:36.387Z,99096.97
2023-02-11T20:03:02.829Z,99082.81
2023-02-11T20:05:29.226Z,99091.84
2023-02-11T20:07:55.601Z,99082.38
2023-02-11T20:10:23.586Z,99094.25
2023-02-11T20:12:50.033Z,99080.81
2023-02-11T20:15:16.549Z,99090.78
2023-02-11T20:17:43.016Z,99099.34
2023-02-11T20:20:09.787Z,99105.03
2023-02-11T20:22:36.203Z,99085.41
2023-02-11T20:25:02.611Z,99100.00
2023-02-11T20:27:32.051Z,99105.16
2023-02-11T20:29:58.413Z,99115.66
2023-02-11T20:32:24.830Z,99106.78
2023-02-11T20:34:51.187Z,99108.59
2023-02-11T20:37:17.737Z,99108.03
2023-02-11T20:39:45.064Z,99121.59
2023-02-11T20:42:12.051Z,99107.47
2023-02-11T20:44:38.884Z,99101.72
2023-02-11T20:47:05.359Z,99114.25
2023-02-11T20:49:32.084Z,99113.22
2023-02-11T20:51:58.469Z,99128.63
2023-02-11T20:54:25.554Z,99117.03
2023-02-11T20:56:53.871Z,99111.31
2023-02-11T20:59:23.564Z,99103.72
2023-02-11T21:01:53.565Z,99109.09
2023-02-11T21:04:25.507Z,99096.66
2023-02-11T21:06:57.865Z,99096.50
2023-02-11T21:09:27.502Z,99116.25
2023-02-11T21:11:54.617Z,99114.44
2023-02-11T21:14:23.196Z,99116.00
2023-02-11T21:16:50.366Z,99107.78
2023-02-11T21:19:17.358Z,99112.09
2023-02-11T21:21:44.380Z,99101.13
2023-02-11T21:24:11.043Z,99105.03
2023-02-11T21:26:37.895Z,99101.53
2023-02-11T21:29:06.104Z,99102.56
2023-02-11T21:31:34.288Z,99112.94
2023-02-11T21:34:01.183Z,99106.16
2023-02-11T21:36:29.080Z,99115.94
2023-02-11T21:38:55.595Z,99099.84
2023-02-11T21:41:22.919Z,99111.97
2023-02-11T21:43:49.926Z,99114.41
2023-02-11T21:46:17.614Z,99117.88
2023-02-11T21:48:44.001Z,99117.19
2023-02-11T21:51:19.745Z,99121.81
2023-02-11T21:53:46.613Z,99119.19
2023-02-11T21:56:17.867Z,99124.63
2023-02-11T21:58:45.678Z,99120.69
2023-02-11T22:01:20.056Z,99139.09
2023-02-11T22:03:47.325Z,99131.22
2023-02-11T22:06:16.724Z,99136.16
2023-02-11T22:08:43.232Z,99136.38
2023-02-11T22:11:12.236Z,99144.16
2023-02-11T22:13:39.517Z,99134.34
2023-02-11T22:16:08.594Z,99139.72
2023-02-11T22:18:35.914Z,99157.31
2023-02-11T22:21:04.195Z,99155.81
2023-02-11T22:23:31.637Z,99156.03
2023-02-11T22:25:58.964Z,99165.69
2023-02-11T22:28:26.111Z,99161.53
2023-02-11T22:30:56.381Z,99172.63
2023-02-11T22:33:24.628Z,99154.88
2023-02-11T22:36:01.743Z,99155.09
2023-02-11T22:38:29.439Z,99169.34
2023-02-11T22:40:55.789Z,99162.97
2023-02-11T22:43:22.342Z,99170.28
2023-02-11T22:45:49.370Z,99158.47
2023-02-11T22:48:15.878Z,99159.69
2023-02-11T22:50:42.283Z,99153.38
2023-02-11T22:53:09.067Z,99168.25
2023-02-11T22:55:39.919Z,99151.31
2023-02-11T22:58:06.529Z,99148.16
2023-02-11T23:00:38.023Z,99155.66
2023-02-11T23:03:07.217Z,99148.59
2023-02-11T23:05:40.960Z,99133.44
2023-02-11T23:08:09.066Z,99146.59
2023-02-11T23:10:37.362Z,99154.72
2023-02-11T23:13:04.421Z,99162.59
2023-02-11T23:15:31.564Z,99164.59
2023-02-11T23:17:58.012Z,99164.03
2023-02-11T23:20:24.516Z,99172.09
2023-02-11T23:22:50.859Z,99162.88
2023-02-11T23:25:17.369Z,99174.53
2023-02-11T23:27:43.734Z,99162.41
2023-02-11T23:30:10.553Z,99175.75
2023-02-11T23:32:40.794Z,99170.63
2023-02-11T23:35:07.420Z,99171.84
2023-02-11T23:37:33.827Z,99176.69
2023-02-11T23:40:00.217Z,99167.47
2023-02-11T23:42:26.587Z,99177.50
2023-02-11T23:44:52.961Z,99170.28
2023-02-11T23:47:19.468Z,99162.59
2023-02-11T23:49:45.870Z,99175.34
2023-02-11T23:52:12.224Z,99171.84
2023-02-11T23:54:38.607Z,99166.91
2023-02-11T23:57:05.004Z,99175.47
2023-02-11T23:59:31.409Z,99156.25
